sensor_id;sensor_type;location;lat;lon;timestamp;P1;durP1;ratioP1;P2;durP2;ratioP2
74912;SDS011;63878;55.624;37.304;2023-10-13T00:11:26;2.22;;;0.68;;
74912;SDS011;63878;55.624;37.304;2023-10-13T00:21:27;2.35;;;0.70;;
74912;SDS011;63878;55.624;37.304;2023-10-13T00:31:27;3.03;;;0.45;;
74912;SDS011;63878;55.624;37.304;2023-10-13T00:41:27;2.60;;;0.63;;
74912;SDS011;63878;55.624;37.304;2023-10-13T00:51:28;2.25;;;0.40;;
74912;SDS011;63878;55.624;37.304;2023-10-13T01:01:29;1.75;;;0.60;;
74912;SDS011;63878;55.624;37.304;2023-10-13T01:11:30;1.75;;;0.90;;
74912;SDS011;63878;55.624;37.304;2023-10-13T01:21:30;1.83;;;0.50;;
74912;SDS011;63878;55.624;37.304;2023-10-13T01:31:31;1.67;;;0.65;;
74912;SDS011;63878;55.624;37.304;2023-10-13T01:41:31;0.68;;;0.35;;
74912;SDS011;63878;55.624;37.304;2023-10-13T01:51:32;3.75;;;0.70;;
74912;SDS011;63878;55.624;37.304;2023-10-13T02:01:33;1.80;;;0.60;;
74912;SDS011;63878;55.624;37.304;2023-10-13T02:11:34;3.72;;;0.50;;
74912;SDS011;63878;55.624;37.304;2023-10-13T02:21:34;2.42;;;0.57;;
74912;SDS011;63878;55.624;37.304;2023-10-13T02:31:37;1.05;;;0.70;;
74912;SDS011;63878;55.624;37.304;2023-10-13T02:41:39;3.00;;;0.57;;
74912;SDS011;63878;55.624;37.304;2023-10-13T02:51:40;3.03;;;0.60;;
74912;SDS011;63878;55.624;37.304;2023-10-13T03:01:40;3.17;;;0.63;;
74912;SDS011;63878;55.624;37.304;2023-10-13T03:11:41;4.10;;;0.75;;
74912;SDS011;63878;55.624;37.304;2023-10-13T03:21:42;2.22;;;1.05;;
74912;SDS011;63878;55.624;37.304;2023-10-13T03:31:43;3.60;;;0.80;;
74912;SDS011;63878;55.624;37.304;2023-10-13T03:41:43;3.83;;;0.95;;
74912;SDS011;63878;55.624;37.304;2023-10-13T03:51:43;6.20;;;0.98;;
74912;SDS011;63878;55.624;37.304;2023-10-13T04:01:45;2.70;;;1.00;;
74912;SDS011;63878;55.624;37.304;2023-10-13T04:11:46;2.40;;;0.68;;
74912;SDS011;63878;55.624;37.304;2023-10-13T04:21:47;2.30;;;0.60;;
74912;SDS011;63878;55.624;37.304;2023-10-13T04:31:47;2.35;;;0.88;;
74912;SDS011;63878;55.624;37.304;2023-10-13T04:41:48;2.35;;;0.57;;
74912;SDS011;63878;55.624;37.304;2023-10-13T04:51:48;3.08;;;0.85;;
74912;SDS011;63878;55.624;37.304;2023-10-13T05:01:48;2.83;;;0.95;;
74912;SDS011;63878;55.624;37.304;2023-10-13T05:11:49;3.28;;;0.90;;
74912;SDS011;63878;55.624;37.304;2023-10-13T05:21:49;4.15;;;0.90;;
74912;SDS011;63878;55.624;37.304;2023-10-13T05:31:50;2.17;;;0.68;;
74912;SDS011;63878;55.624;37.304;2023-10-13T05:41:50;1.93;;;0.60;;
74912;SDS011;63878;55.624;37.304;2023-10-13T05:51:51;4.53;;;0.70;;
74912;SDS011;63878;55.624;37.304;2023-10-13T06:01:51;3.47;;;0.60;;
74912;SDS011;63878;55.624;37.304;2023-10-13T06:11:52;3.15;;;0.70;;
74912;SDS011;63878;55.624;37.304;2023-10-13T06:21:53;3.50;;;0.85;;
74912;SDS011;63878;55.624;37.304;2023-10-13T06:31:54;6.60;;;0.90;;
74912;SDS011;63878;55.624;37.304;2023-10-13T06:41:55;3.15;;;0.80;;
74912;SDS011;63878;55.624;37.304;2023-10-13T06:51:55;1.95;;;0.55;;
74912;SDS011;63878;55.624;37.304;2023-10-13T07:01:56;2.70;;;0.82;;
74912;SDS011;63878;55.624;37.304;2023-10-13T07:11:58;3.95;;;0.98;;
74912;SDS011;63878;55.624;37.304;2023-10-13T07:22:02;1.60;;;0.52;;
74912;SDS011;63878;55.624;37.304;2023-10-13T07:42:04;0.50;;;0.20;;
74912;SDS011;63878;55.624;37.304;2023-10-13T07:52:06;2.40;;;0.57;;
74912;SDS011;63878;55.624;37.304;2023-10-13T08:02:08;4.80;;;0.55;;
74912;SDS011;63878;55.624;37.304;2023-10-13T08:12:09;5.07;;;0.60;;
74912;SDS011;63878;55.624;37.304;2023-10-13T08:22:09;0.20;;;0.20;;
74912;SDS011;63878;55.624;37.304;2023-10-13T08:32:10;1.05;;;0.30;;
74912;SDS011;63878;55.624;37.304;2023-10-13T08:42:11;1.50;;;0.28;;
74912;SDS011;63878;55.624;37.304;2023-10-13T08:52:11;0.97;;;0.43;;
74912;SDS011;63878;55.624;37.304;2023-10-13T09:02:15;1.65;;;0.50;;
74912;SDS011;63878;55.624;37.304;2023-10-13T09:12:16;1.08;;;0.40;;
74912;SDS011;63878;55.624;37.304;2023-10-13T09:22:21;1.20;;;0.30;;
74912;SDS011;63878;55.624;37.304;2023-10-13T09:32:23;0.55;;;0.20;;
74912;SDS011;63878;55.624;37.304;2023-10-13T09:42:23;1.92;;;0.22;;
74912;SDS011;63878;55.624;37.304;2023-10-13T09:52:25;2.83;;;0.45;;
74912;SDS011;63878;55.624;37.304;2023-10-13T10:02:26;1.02;;;0.50;;
74912;SDS011;63878;55.624;37.304;2023-10-13T10:12:44;1.27;;;0.47;;
74912;SDS011;63878;55.624;37.304;2023-10-13T10:22:56;1.30;;;0.50;;
74912;SDS011;63878;55.624;37.304;2023-10-13T10:32:57;1.60;;;0.40;;
74912;SDS011;63878;55.624;37.304;2023-10-13T10:42:58;1.73;;;0.40;;
74912;SDS011;63878;55.624;37.304;2023-10-13T10:53:03;1.23;;;0.50;;
74912;SDS011;63878;55.624;37.304;2023-10-13T11:03:05;1.02;;;0.55;;
74912;SDS011;63878;55.624;37.304;2023-10-13T11:13:05;1.88;;;0.60;;
74912;SDS011;63878;55.624;37.304;2023-10-13T11:23:14;3.28;;;0.63;;
74912;SDS011;63878;55.624;37.304;2023-10-13T11:43:17;2.78;;;0.35;;
74912;SDS011;63878;55.624;37.304;2023-10-13T11:53:17;3.53;;;1.30;;
74912;SDS011;63878;55.624;37.304;2023-10-13T12:03:19;1.15;;;0.93;;
74912;SDS011;63878;55.624;37.304;2023-10-13T12:13:19;4.88;;;1.20;;
74912;SDS011;63878;55.624;37.304;2023-10-13T12:23:20;1.13;;;0.50;;
74912;SDS011;63878;55.624;37.304;2023-10-13T12:33:20;3.17;;;0.47;;
74912;SDS011;63878;55.624;37.304;2023-10-13T12:43:21;10.73;;;0.75;;
74912;SDS011;63878;55.624;37.304;2023-10-13T12:53:22;1.90;;;0.67;;
74912;SDS011;63878;55.624;37.304;2023-10-13T13:03:22;1.43;;;0.80;;
74912;SDS011;63878;55.624;37.304;2023-10-13T13:13:23;2.58;;;0.55;;
74912;SDS011;63878;55.624;37.304;2023-10-13T13:23:23;1.20;;;0.30;;
74912;SDS011;63878;55.624;37.304;2023-10-13T13:33:24;4.32;;;0.85;;
74912;SDS011;63878;55.624;37.304;2023-10-13T13:43:24;2.53;;;0.50;;
74912;SDS011;63878;55.624;37.304;2023-10-13T13:53:25;2.63;;;1.10;;
74912;SDS011;63878;55.624;37.304;2023-10-13T14:03:25;0.70;;;0.30;;
74912;SDS011;63878;55.624;37.304;2023-10-13T14:13:26;1.65;;;0.60;;
74912;SDS011;63878;55.624;37.304;2023-10-13T14:23:27;2.80;;;0.80;;
74912;SDS011;63878;55.624;37.304;2023-10-13T14:33:27;1.88;;;1.05;;
74912;SDS011;63878;55.624;37.304;2023-10-13T14:43:28;3.63;;;1.00;;
74912;SDS011;63878;55.624;37.304;2023-10-13T14:53:28;5.95;;;2.55;;
74912;SDS011;63878;55.624;37.304;2023-10-13T15:03:29;4.28;;;1.50;;
74912;SDS011;63878;55.624;37.304;2023-10-13T15:13:30;4.68;;;1.65;;
74912;SDS011;63878;55.624;37.304;2023-10-13T15:23:30;5.20;;;1.95;;
74912;SDS011;63878;55.624;37.304;2023-10-13T15:33:31;4.93;;;2.42;;
74912;SDS011;63878;55.624;37.304;2023-10-13T15:43:31;6.72;;;3.13;;
74912;SDS011;63878;55.624;37.304;2023-10-13T15:53:32;9.13;;;3.88;;
74912;SDS011;63878;55.624;37.304;2023-10-13T16:03:33;7.47;;;3.60;;
74912;SDS011;63878;55.624;37.304;2023-10-13T16:13:35;9.73;;;3.58;;
74912;SDS011;63878;55.624;37.304;2023-10-13T16:23:35;11.45;;;3.55;;
74912;SDS011;63878;55.624;37.304;2023-10-13T16:33:36;9.80;;;3.70;;
74912;SDS011;63878;55.624;37.304;2023-10-13T16:43:37;13.98;;;4.88;;
74912;SDS011;63878;55.624;37.304;2023-10-13T16:53:38;9.63;;;4.75;;
74912;SDS011;63878;55.624;37.304;2023-10-13T17:03:40;12.68;;;6.22;;
74912;SDS011;63878;55.624;37.304;2023-10-13T17:13:42;11.73;;;5.22;;
74912;SDS011;63878;55.624;37.304;2023-10-13T17:23:46;12.68;;;5.30;;
74912;SDS011;63878;55.624;37.304;2023-10-13T17:33:48;16.30;;;6.70;;
74912;SDS011;63878;55.624;37.304;2023-10-13T17:43:48;13.88;;;5.32;;
74912;SDS011;63878;55.624;37.304;2023-10-13T17:53:49;9.13;;;3.60;;
74912;SDS011;63878;55.624;37.304;2023-10-13T18:03:50;7.53;;;4.25;;
74912;SDS011;63878;55.624;37.304;2023-10-13T18:13:52;12.70;;;4.53;;
74912;SDS011;63878;55.624;37.304;2023-10-13T18:23:53;10.38;;;3.47;;
74912;SDS011;63878;55.624;37.304;2023-10-13T18:33:53;10.88;;;3.92;;
74912;SDS011;63878;55.624;37.304;2023-10-13T18:43:54;7.90;;;4.00;;
74912;SDS011;63878;55.624;37.304;2023-10-13T18:53:54;8.25;;;2.63;;
74912;SDS011;63878;55.624;37.304;2023-10-13T19:03:57;6.13;;;2.60;;
74912;SDS011;63878;55.624;37.304;2023-10-13T19:14:00;5.63;;;2.95;;
74912;SDS011;63878;55.624;37.304;2023-10-13T19:24:01;6.60;;;3.58;;
74912;SDS011;63878;55.624;37.304;2023-10-13T19:34:02;6.20;;;2.55;;
74912;SDS011;63878;55.624;37.304;2023-10-13T19:44:03;4.20;;;2.05;;
74912;SDS011;63878;55.624;37.304;2023-10-13T19:54:04;4.63;;;1.65;;
74912;SDS011;63878;55.624;37.304;2023-10-13T20:04:05;7.22;;;2.33;;
74912;SDS011;63878;55.624;37.304;2023-10-13T20:14:07;5.38;;;2.35;;
74912;SDS011;63878;55.624;37.304;2023-10-13T20:24:08;7.47;;;2.97;;
74912;SDS011;63878;55.624;37.304;2023-10-13T20:34:08;13.95;;;4.35;;
74912;SDS011;63878;55.624;37.304;2023-10-13T20:44:09;6.45;;;4.00;;
74912;SDS011;63878;55.624;37.304;2023-10-13T20:54:09;7.68;;;3.92;;
74912;SDS011;63878;55.624;37.304;2023-10-13T21:04:10;8.48;;;4.03;;
74912;SDS011;63878;55.624;37.304;2023-10-13T21:14:11;12.80;;;3.07;;
74912;SDS011;63878;55.624;37.304;2023-10-13T21:24:12;9.40;;;2.80;;
74912;SDS011;63878;55.624;37.304;2023-10-13T21:34:12;5.10;;;2.78;;
74912;SDS011;63878;55.624;37.304;2023-10-13T21:44:13;6.85;;;2.13;;
74912;SDS011;63878;55.624;37.304;2023-10-13T21:54:13;5.47;;;2.90;;
74912;SDS011;63878;55.624;37.304;2023-10-13T22:04:14;8.90;;;3.23;;
74912;SDS011;63878;55.624;37.304;2023-10-13T22:14:14;8.00;;;2.60;;
74912;SDS011;63878;55.624;37.304;2023-10-13T22:24:15;5.30;;;2.75;;
74912;SDS011;63878;55.624;37.304;2023-10-13T22:34:15;5.78;;;2.72;;
74912;SDS011;63878;55.624;37.304;2023-10-13T22:44:16;5.18;;;1.90;;
74912;SDS011;63878;55.624;37.304;2023-10-13T22:54:16;5.70;;;2.30;;
74912;SDS011;63878;55.624;37.304;2023-10-13T23:04:16;5.60;;;2.00;;
74912;SDS011;63878;55.624;37.304;2023-10-13T23:14:17;3.60;;;1.83;;
74912;SDS011;63878;55.624;37.304;2023-10-13T23:24:17;6.88;;;2.03;;
74912;SDS011;63878;55.624;37.304;2023-10-13T23:34:18;8.55;;;2.50;;
74912;SDS011;63878;55.624;37.304;2023-10-13T23:44:18;4.97;;;1.90;;
74912;SDS011;63878;55.624;37.304;2023-10-13T23:54:19;6.38;;;2.25;;
